Yeager (CRW)

 

Airport Diagram
Current Weather/Forecast (VFR Conditions)
METAR KCRW 040254Z 11003KT 6SM BR FEW020 SCT070 BKN090 19/17 A3006 RMK AO2 SLP170 60014 T01890172 50005 $
TAF KCRW 040253Z 0403/0424 VRB04KT P6SM SCT017 OVC100 FM040400 00000KT 6SM BR VCSH SCT060 FM040600 00000KT 4SM BR FEW002 SCT060 FM040800 00000KT 2SM BR SCT002 BKN018 FM041200 00000KT P6SM BKN080

Airport Information

All Charts
General
Chart Name View
AIRPORT DIAGRAM
TAKEOFF MINIMUMS
ALTERNATE MINIMUMS

Approaches
Chart Name Download
ILS OR LOC RWY 05
ILS OR LOC RWY 23
RNAV (RNP) Z RWY 05
RNAV (RNP) Z RWY 23
RNAV (GPS) Y RWY 05
RNAV (GPS) Y RWY 23
VOR-A


Airport Statistics
Departures Arrivals Local
All Collected Stats since June 2016: 502 477 21
2021 Stats: 127 161 3
August Stats: 1 0 0

Inbound Traffic (Arrivals) - 0

No inbound traffic.


Outbound Traffic (Departures) - 0

No outbound traffic.


Local Traffic (Pattern) - 0

No local traffic.